createdAt,value
2019-03-12T00:00:25.471Z,12.13
2019-03-12T00:02:52.321Z,9.40
2019-03-12T00:05:19.163Z,12.23
2019-03-12T00:07:45.887Z,11.13
2019-03-12T00:10:12.682Z,10.33
2019-03-12T00:12:39.334Z,12.13
2019-03-12T00:15:06.124Z,12.80
2019-03-12T00:17:33.052Z,11.57
2019-03-12T00:19:59.687Z,15.57
2019-03-12T00:22:26.417Z,13.90
2019-03-12T00:24:53.271Z,12.23
2019-03-12T00:27:20.014Z,17.63
2019-03-12T00:29:47.511Z,12.50
2019-03-12T00:32:14.328Z,12.93
2019-03-12T00:34:41.045Z,12.23
2019-03-12T00:37:07.693Z,13.37
2019-03-12T00:39:34.422Z,10.10
2019-03-12T00:42:01.174Z,13.00
2019-03-12T00:44:27.924Z,13.63
2019-03-12T00:46:54.752Z,15.13
2019-03-12T00:49:21.564Z,15.63
2019-03-12T00:51:48.207Z,11.53
2019-03-12T00:54:15.381Z,11.30
2019-03-12T00:56:42.131Z,12.23
2019-03-12T00:59:08.962Z,11.70
2019-03-12T01:01:35.690Z,10.27
2019-03-12T01:04:02.430Z,12.23
2019-03-12T01:06:29.215Z,11.17
2019-03-12T01:08:56.139Z,10.07
2019-03-12T01:11:22.866Z,13.67
2019-03-12T01:13:49.599Z,10.97
2019-03-12T01:16:16.332Z,11.60
2019-03-12T01:18:43.083Z,13.23
2019-03-12T01:21:09.814Z,11.57
2019-03-12T01:23:36.561Z,10.53
2019-03-12T01:26:03.292Z,12.70
2019-03-12T01:28:30.027Z,10.63
2019-03-12T01:30:56.877Z,11.20
2019-03-12T01:33:23.721Z,13.37
2019-03-12T01:35:50.435Z,11.63
2019-03-12T01:38:17.195Z,12.60
2019-03-12T01:40:43.937Z,14.00
2019-03-12T01:43:10.967Z,14.07
2019-03-12T01:45:37.716Z,11.77
2019-03-12T01:48:04.452Z,12.37
2019-03-12T01:50:31.226Z,15.40
2019-03-12T01:52:58.056Z,12.97
2019-03-12T01:55:24.829Z,14.30
2019-03-12T01:57:51.619Z,11.53
2019-03-12T02:00:18.353Z,11.63
2019-03-12T02:02:45.104Z,11.77
2019-03-12T02:05:11.900Z,14.37
2019-03-12T02:07:38.679Z,8.40
2019-03-12T02:10:05.418Z,14.60
2019-03-12T02:12:32.166Z,13.33
2019-03-12T02:14:58.910Z,15.67
2019-03-12T02:17:25.948Z,14.40
2019-03-12T02:19:52.780Z,13.50
2019-03-12T02:22:19.510Z,13.17
2019-03-12T02:24:52.740Z,12.93
2019-03-12T02:27:14.653Z,14.23
2019-03-12T02:29:41.501Z,13.20
2019-03-12T02:32:08.342Z,14.10
2019-03-12T02:34:35.315Z,12.03
2019-03-12T02:37:02.015Z,13.40
2019-03-12T02:39:28.753Z,13.33
2019-03-12T02:41:55.381Z,16.93
2019-03-12T02:44:22.129Z,14.47
2019-03-12T02:46:48.822Z,13.63
2019-03-12T02:49:15.613Z,15.57
2019-03-12T02:51:42.337Z,11.83
2019-03-12T02:54:09.045Z,13.33
2019-03-12T02:56:35.919Z,12.30
2019-03-12T02:59:02.681Z,14.20
2019-03-12T03:01:29.612Z,16.90
2019-03-12T03:03:56.458Z,13.83
2019-03-12T03:06:23.197Z,13.60
2019-03-12T03:08:50.397Z,15.10
2019-03-12T03:11:17.180Z,14.23
2019-03-12T03:13:44.027Z,12.63
2019-03-12T03:16:10.766Z,14.00
2019-03-12T03:18:37.599Z,17.03
2019-03-12T03:21:04.464Z,14.23
2019-03-12T03:23:31.191Z,16.40
2019-03-12T03:25:57.937Z,16.90
2019-03-12T03:28:24.656Z,15.00
2019-03-12T03:30:51.397Z,14.73
2019-03-12T03:33:18.864Z,14.70
2019-03-12T03:35:45.600Z,13.80
2019-03-12T03:38:12.328Z,12.80
2019-03-12T03:40:39.107Z,15.57
2019-03-12T03:43:05.917Z,14.67
2019-03-12T03:45:32.712Z,14.67
2019-03-12T03:47:59.501Z,15.13
2019-03-12T03:50:26.235Z,14.10
2019-03-12T03:52:52.940Z,13.23
2019-03-12T03:55:19.727Z,16.63
2019-03-12T03:57:46.576Z,14.10
2019-03-12T04:00:13.475Z,11.70
2019-03-12T04:02:40.235Z,13.93
2019-03-12T04:05:07.179Z,15.00
2019-03-12T04:07:35.906Z,14.50
2019-03-12T04:10:03.254Z,13.67
2019-03-12T04:12:30.720Z,14.13
2019-03-12T04:14:59.534Z,14.73
2019-03-12T04:17:26.204Z,14.93
2019-03-12T04:19:53.122Z,14.30
2019-03-12T04:22:19.893Z,12.63
2019-03-12T04:24:46.738Z,15.07
2019-03-12T04:27:13.577Z,13.33
2019-03-12T04:29:40.524Z,14.07
2019-03-12T04:32:07.255Z,15.57
2019-03-12T04:34:34.098Z,17.53
2019-03-12T04:37:00.839Z,13.33
2019-03-12T04:39:27.578Z,15.87
2019-03-12T04:41:54.325Z,15.93
2019-03-12T04:44:21.165Z,14.87
2019-03-12T04:46:47.997Z,14.93
2019-03-12T04:49:14.899Z,15.27
2019-03-12T04:51:41.766Z,14.80
2019-03-12T04:54:08.516Z,13.67
2019-03-12T04:56:35.254Z,17.80
2019-03-12T04:59:01.940Z,17.67
2019-03-12T05:01:28.780Z,19.37
2019-03-12T05:03:55.586Z,17.17
2019-03-12T05:06:22.528Z,18.30
2019-03-12T05:08:49.274Z,22.20
2019-03-12T05:11:16.102Z,19.13
2019-03-12T05:13:42.855Z,17.43
2019-03-12T05:16:09.550Z,18.53
2019-03-12T05:18:36.217Z,20.13
2019-03-12T05:21:02.963Z,21.00
2019-03-12T05:23:29.758Z,21.57
2019-03-12T05:25:56.756Z,21.90
2019-03-12T05:28:23.441Z,23.97
2019-03-12T05:30:50.241Z,21.10
2019-03-12T05:33:17.067Z,24.13
2019-03-12T05:35:43.908Z,19.27
2019-03-12T05:38:10.671Z,18.20
2019-03-12T05:40:37.386Z,18.93
2019-03-12T05:43:04.131Z,18.67
2019-03-12T05:45:30.862Z,17.87
2019-03-12T05:47:57.712Z,17.20
2019-03-12T05:50:24.558Z,18.77
2019-03-12T05:52:51.402Z,15.57
2019-03-12T05:55:18.230Z,19.37
2019-03-12T05:57:45.009Z,15.33
2019-03-12T06:00:11.817Z,19.63
2019-03-12T06:02:38.548Z,24.37
2019-03-12T06:05:05.185Z,20.83
2019-03-12T06:07:31.953Z,17.77
2019-03-12T06:09:58.853Z,20.60
2019-03-12T06:12:25.714Z,19.53
2019-03-12T06:14:52.459Z,22.77
2019-03-12T06:17:19.291Z,20.03
2019-03-12T06:19:46.038Z,19.90
2019-03-12T06:22:12.781Z,17.23
2019-03-12T06:24:39.570Z,18.50
2019-03-12T06:27:06.354Z,17.30
2019-03-12T06:29:33.100Z,17.77
2019-03-12T06:31:59.956Z,20.27
2019-03-12T06:34:26.629Z,17.47
2019-03-12T06:36:53.819Z,20.37
2019-03-12T06:39:20.570Z,21.03
2019-03-12T06:41:47.309Z,17.43
2019-03-12T06:44:14.149Z,17.47
2019-03-12T06:46:40.994Z,17.87
2019-03-12T06:49:07.825Z,17.23
2019-03-12T06:51:34.482Z,17.87
2019-03-12T06:54:01.401Z,19.37
2019-03-12T06:56:28.154Z,18.87
2019-03-12T06:58:54.899Z,15.23
2019-03-12T07:01:21.728Z,16.23
2019-03-12T07:03:48.471Z,11.47
2019-03-12T07:06:15.203Z,11.53
2019-03-12T07:08:41.948Z,11.37
2019-03-12T07:11:08.688Z,9.90
2019-03-12T07:13:35.447Z,10.73
2019-03-12T07:16:02.171Z,12.43
2019-03-12T07:18:28.864Z,12.90
2019-03-12T07:20:55.570Z,11.23
2019-03-12T07:23:22.191Z,11.90
2019-03-12T07:25:50.886Z,10.93
2019-03-12T07:28:17.810Z,12.87
2019-03-12T07:30:44.551Z,13.10
2019-03-12T07:33:11.414Z,10.97
2019-03-12T07:35:38.137Z,11.47
2019-03-12T07:38:04.991Z,12.63
2019-03-12T07:40:31.711Z,12.27
2019-03-12T07:42:58.454Z,10.70
2019-03-12T07:45:25.183Z,11.40
2019-03-12T07:47:51.819Z,10.37
2019-03-12T07:50:18.666Z,11.00
2019-03-12T07:52:45.401Z,10.60
2019-03-12T07:55:12.094Z,9.67
2019-03-12T07:57:38.782Z,9.70
2019-03-12T08:00:05.531Z,9.93
2019-03-12T08:02:32.322Z,10.30
2019-03-12T08:04:59.097Z,11.10
2019-03-12T08:07:26.074Z,14.43
2019-03-12T08:09:52.800Z,9.73
2019-03-12T08:12:19.621Z,13.70
2019-03-12T08:14:46.333Z,14.07
2019-03-12T08:17:13.099Z,10.77
2019-03-12T08:19:39.962Z,11.17
2019-03-12T08:22:06.693Z,12.67
2019-03-12T08:24:33.535Z,10.00
2019-03-12T08:27:00.368Z,12.13
2019-03-12T08:29:27.206Z,13.27
2019-03-12T08:31:53.954Z,11.80
2019-03-12T08:34:20.799Z,13.03
2019-03-12T08:36:47.533Z,13.10
2019-03-12T08:39:14.331Z,13.33
2019-03-12T08:41:41.239Z,12.00
2019-03-12T08:44:08.007Z,16.67
2019-03-12T08:46:34.800Z,10.93
2019-03-12T08:49:01.531Z,39.97
2019-03-12T08:51:28.457Z,29.83
2019-03-12T08:53:55.399Z,13.97
2019-03-12T08:56:22.154Z,12.23
2019-03-12T08:58:48.915Z,14.53
2019-03-12T09:01:15.757Z,12.63
2019-03-12T09:03:42.591Z,11.03
2019-03-12T09:06:09.333Z,14.83
2019-03-12T09:08:36.072Z,14.27
2019-03-12T09:11:02.923Z,14.60
2019-03-12T09:13:29.750Z,75.93
2019-03-12T09:15:56.590Z,16.33
2019-03-12T09:18:23.433Z,14.20
2019-03-12T09:20:50.283Z,13.97
2019-03-12T09:23:17.114Z,12.97
2019-03-12T09:25:43.975Z,14.00
2019-03-12T09:28:10.841Z,16.83
2019-03-12T09:30:39.683Z,13.03
2019-03-12T09:33:06.012Z,14.57
2019-03-12T09:35:32.729Z,16.03
2019-03-12T09:37:59.423Z,16.17
2019-03-12T09:40:26.238Z,13.73
2019-03-12T09:42:53.173Z,15.23
2019-03-12T09:45:19.913Z,16.10
2019-03-12T09:47:46.859Z,11.73
2019-03-12T09:50:13.605Z,11.07
2019-03-12T09:52:40.506Z,10.82
2019-03-12T09:55:07.304Z,10.25
2019-03-12T09:57:34.132Z,10.23
2019-03-12T10:00:00.970Z,12.00
2019-03-12T10:02:27.701Z,11.70
2019-03-12T10:04:54.550Z,8.53
2019-03-12T10:07:21.282Z,9.43
2019-03-12T10:09:48.023Z,8.30
2019-03-12T10:12:14.762Z,8.83
2019-03-12T10:14:41.459Z,8.23
2019-03-12T10:17:08.447Z,8.33
2019-03-12T10:19:35.160Z,9.35
2019-03-12T10:22:01.815Z,9.70
2019-03-12T10:24:29.029Z,8.95
2019-03-12T10:26:55.813Z,9.83
2019-03-12T10:29:23.021Z,8.38
2019-03-12T10:31:49.795Z,5.78
2019-03-12T10:34:28.972Z,6.80
2019-03-12T10:36:45.027Z,7.58
2019-03-12T10:39:11.732Z,7.15
2019-03-12T10:41:38.701Z,7.20
2019-03-12T10:44:05.647Z,7.42
2019-03-12T10:46:32.595Z,6.40
2019-03-12T10:48:59.329Z,6.70
2019-03-12T10:51:26.186Z,6.85
2019-03-12T10:53:53.120Z,6.10
2019-03-12T10:56:19.859Z,7.78
2019-03-12T10:58:46.709Z,6.92
2019-03-12T11:01:13.711Z,6.10
2019-03-12T11:03:40.452Z,6.97
2019-03-12T11:06:07.219Z,5.47
2019-03-12T11:08:33.970Z,5.75
2019-03-12T11:11:00.705Z,5.75
2019-03-12T11:13:27.437Z,5.65
2019-03-12T11:15:54.183Z,6.00
2019-03-12T11:18:21.022Z,5.85
2019-03-12T11:20:47.764Z,4.95
2019-03-12T11:23:14.514Z,6.12
2019-03-12T11:25:41.353Z,6.17
2019-03-12T11:28:08.232Z,6.85
2019-03-12T11:30:35.034Z,6.47
2019-03-12T11:33:01.862Z,6.30
2019-03-12T11:35:38.841Z,7.70
2019-03-12T11:37:56.988Z,6.90
2019-03-12T11:40:23.761Z,6.73
2019-03-12T11:42:50.696Z,7.13
2019-03-12T11:45:19.495Z,6.73
2019-03-12T11:47:45.845Z,5.47
2019-03-12T11:50:12.694Z,6.75
2019-03-12T11:52:39.476Z,5.53
2019-03-12T11:55:06.280Z,5.25
2019-03-12T11:57:33.279Z,7.00
2019-03-12T11:59:59.980Z,6.47
2019-03-12T12:02:26.754Z,6.75
2019-03-12T12:04:53.582Z,6.70
2019-03-12T12:07:20.517Z,6.90
2019-03-12T12:09:47.361Z,6.30
2019-03-12T12:12:14.208Z,5.53
2019-03-12T12:14:41.262Z,6.42
2019-03-12T12:17:08.093Z,6.00
2019-03-12T12:19:34.952Z,6.95
2019-03-12T12:22:01.855Z,6.12
2019-03-12T12:24:28.585Z,6.37
2019-03-12T12:26:55.346Z,6.62
2019-03-12T12:29:22.198Z,6.83
2019-03-12T12:31:49.045Z,6.15
2019-03-12T12:34:15.777Z,7.58
2019-03-12T12:36:42.512Z,6.08
2019-03-12T12:39:09.250Z,7.28
2019-03-12T12:41:35.949Z,7.03
2019-03-12T12:44:03.444Z,6.58
2019-03-12T12:46:30.184Z,5.28
2019-03-12T12:48:56.926Z,5.70
2019-03-12T12:51:23.576Z,5.87
2019-03-12T12:53:50.401Z,4.90
2019-03-12T12:56:17.675Z,5.87
2019-03-12T12:58:44.505Z,6.20
2019-03-12T13:01:11.248Z,5.00
2019-03-12T13:03:38.087Z,6.80
2019-03-12T13:06:04.812Z,6.22
2019-03-12T13:08:31.499Z,5.95
2019-03-12T13:10:58.303Z,5.67
2019-03-12T13:13:25.134Z,6.37
2019-03-12T13:15:51.882Z,6.03
2019-03-12T13:18:18.623Z,6.17
2019-03-12T13:20:45.369Z,6.10
2019-03-12T13:23:12.103Z,5.97
2019-03-12T13:25:38.793Z,5.90
2019-03-12T13:28:05.468Z,6.30
2019-03-12T13:30:32.215Z,7.20
2019-03-12T13:32:59.047Z,7.57
2019-03-12T13:35:25.788Z,6.77
2019-03-12T13:37:52.537Z,9.70
2019-03-12T13:40:19.281Z,7.27
2019-03-12T13:42:46.012Z,7.53
2019-03-12T13:45:12.860Z,5.50
2019-03-12T13:47:39.753Z,7.23
2019-03-12T13:50:06.837Z,7.30
2019-03-12T13:52:33.579Z,6.43
2019-03-12T13:55:02.022Z,7.30
2019-03-12T13:57:29.216Z,6.33
2019-03-12T13:59:56.054Z,5.23
2019-03-12T14:02:22.785Z,8.03
2019-03-12T14:04:49.656Z,6.50
2019-03-12T14:07:16.358Z,6.53
2019-03-12T14:09:43.119Z,5.83
2019-03-12T14:12:09.843Z,6.43
2019-03-12T14:14:36.543Z,6.67
2019-03-12T14:17:03.230Z,6.63
2019-03-12T14:19:29.958Z,7.80
2019-03-12T14:21:56.712Z,7.47
2019-03-12T14:24:23.442Z,9.20
2019-03-12T14:26:50.148Z,7.17
2019-03-12T14:31:48.576Z,5.70
2019-03-12T14:34:15.413Z,6.50
2019-03-12T14:36:42.086Z,6.93
2019-03-12T14:39:08.788Z,6.87
2019-03-12T14:41:35.454Z,7.50
2019-03-12T14:44:02.284Z,6.70
2019-03-12T14:46:29.326Z,6.97
2019-03-12T14:48:56.063Z,6.60
2019-03-12T14:51:22.794Z,6.20
2019-03-12T14:53:49.545Z,6.67
2019-03-12T14:56:16.390Z,7.93
2019-03-12T14:58:43.225Z,12.40
2019-03-12T15:01:09.930Z,6.43
2019-03-12T15:03:36.702Z,8.83
2019-03-12T15:06:03.572Z,9.30
2019-03-12T15:08:30.378Z,7.20
2019-03-12T15:10:57.117Z,8.10
2019-03-12T15:13:23.853Z,7.90
2019-03-12T15:15:50.608Z,6.53
2019-03-12T15:18:17.450Z,11.00
2019-03-12T15:20:44.209Z,6.30
2019-03-12T15:23:11.014Z,6.40
2019-03-12T15:25:37.755Z,8.33
2019-03-12T15:28:04.511Z,9.27
2019-03-12T15:30:32.270Z,8.57
2019-03-12T15:32:59.114Z,12.10
2019-03-12T15:35:25.946Z,10.97
2019-03-12T15:37:52.694Z,8.00
2019-03-12T15:40:19.730Z,8.23
2019-03-12T15:42:46.534Z,6.33
2019-03-12T15:45:13.323Z,10.70
2019-03-12T15:47:40.163Z,7.60
2019-03-12T15:50:09.863Z,10.77
2019-03-12T15:52:35.385Z,7.83
2019-03-12T15:55:02.230Z,8.97
2019-03-12T15:57:29.167Z,9.53
2019-03-12T15:59:55.995Z,7.40
2019-03-12T16:02:22.755Z,9.20
2019-03-12T16:04:49.736Z,8.73
2019-03-12T16:07:16.436Z,6.53
2019-03-12T16:09:43.384Z,7.47
2019-03-12T16:12:10.218Z,6.07
2019-03-12T16:14:36.953Z,7.97
2019-03-12T16:17:03.691Z,8.57
2019-03-12T16:19:30.539Z,12.27
2019-03-12T16:21:57.432Z,7.53
2019-03-12T16:24:25.098Z,10.57
2019-03-12T16:26:51.868Z,12.27
2019-03-12T16:29:18.513Z,10.73
2019-03-12T16:31:45.356Z,9.17
2019-03-12T16:34:12.060Z,7.43
2019-03-12T16:36:38.935Z,5.73
2019-03-12T16:39:05.690Z,7.20
2019-03-12T16:41:32.524Z,7.30
2019-03-12T16:43:59.358Z,7.07
2019-03-12T16:46:26.205Z,7.47
2019-03-12T16:48:53.150Z,7.90
2019-03-12T16:51:19.994Z,8.57
2019-03-12T16:53:46.738Z,9.10
2019-03-12T16:56:13.574Z,10.37
2019-03-12T16:58:40.426Z,10.93
2019-03-12T17:01:07.278Z,12.63
2019-03-12T17:03:34.168Z,11.97
2019-03-12T17:06:00.840Z,10.33
2019-03-12T17:08:27.534Z,9.63
2019-03-12T17:11:02.248Z,9.50
2019-03-12T17:13:23.362Z,9.67
2019-03-12T17:15:54.369Z,7.97
2019-03-12T17:18:18.518Z,10.43
2019-03-12T17:20:45.574Z,9.23
2019-03-12T17:23:12.316Z,10.27
2019-03-12T17:25:39.141Z,9.80
2019-03-12T17:28:05.907Z,11.27
2019-03-12T17:30:32.842Z,11.97
2019-03-12T17:32:59.590Z,12.70
2019-03-12T17:35:26.430Z,12.30
2019-03-12T17:37:53.285Z,11.87
2019-03-12T17:40:20.098Z,13.97
2019-03-12T17:42:46.842Z,11.70
2019-03-12T17:45:13.578Z,15.13
2019-03-12T17:47:40.717Z,12.77
2019-03-12T17:50:07.799Z,13.80
2019-03-12T17:52:34.939Z,11.80
2019-03-12T17:55:01.653Z,14.57
2019-03-12T17:57:28.394Z,13.27
2019-03-12T17:59:55.150Z,12.27
2019-03-12T18:02:22.017Z,13.90
2019-03-12T18:04:48.916Z,17.13
2019-03-12T18:07:15.663Z,14.17
2019-03-12T18:09:43.370Z,18.83
2019-03-12T18:12:10.304Z,19.13
2019-03-12T18:14:37.211Z,17.17
2019-03-12T18:17:05.959Z,17.73
2019-03-12T18:19:32.853Z,24.40
2019-03-12T18:22:00.084Z,22.97
2019-03-12T18:24:26.929Z,20.90
2019-03-12T18:26:53.675Z,21.70
2019-03-12T18:29:20.410Z,24.97
2019-03-12T18:31:47.158Z,18.70
2019-03-12T18:34:13.993Z,19.60
2019-03-12T18:36:41.086Z,18.73
2019-03-12T18:39:09.015Z,20.53
2019-03-12T18:41:35.844Z,23.40
2019-03-12T18:44:02.600Z,22.60
2019-03-12T18:46:29.333Z,21.77
2019-03-12T18:48:56.059Z,22.97
2019-03-12T18:51:22.865Z,25.63
2019-03-12T18:53:49.556Z,24.00
2019-03-12T18:56:16.508Z,24.00
2019-03-12T18:58:43.357Z,22.53
2019-03-12T19:01:10.264Z,23.70
2019-03-12T19:03:37.012Z,27.03
2019-03-12T19:06:03.755Z,23.87
2019-03-12T19:08:30.599Z,24.77
2019-03-12T19:10:57.302Z,25.53
2019-03-12T19:13:24.289Z,21.60
2019-03-12T19:15:51.185Z,18.87
2019-03-12T19:18:18.089Z,22.17
2019-03-12T19:20:44.931Z,25.57
2019-03-12T19:23:11.758Z,20.13
2019-03-12T19:25:38.873Z,20.23
2019-03-12T19:28:05.945Z,24.37
2019-03-12T19:30:32.697Z,24.07
2019-03-12T19:32:59.416Z,22.93
2019-03-12T19:35:26.159Z,20.73
2019-03-12T19:37:52.854Z,19.73
2019-03-12T19:40:19.642Z,21.03
2019-03-12T19:42:46.495Z,19.30
2019-03-12T19:45:13.330Z,22.13
2019-03-12T19:47:40.167Z,18.47
2019-03-12T19:50:07.024Z,24.87
2019-03-12T19:52:33.843Z,21.73
2019-03-12T19:55:00.595Z,17.03
2019-03-12T19:57:27.318Z,21.33
2019-03-12T19:59:54.072Z,22.93
2019-03-12T20:02:20.911Z,21.23
2019-03-12T20:04:47.775Z,21.07
2019-03-12T20:07:14.672Z,19.73
2019-03-12T20:09:41.399Z,18.20
2019-03-12T20:12:08.128Z,18.57
2019-03-12T20:14:34.901Z,17.23
2019-03-12T20:17:09.036Z,18.23
2019-03-12T20:19:30.025Z,22.87
2019-03-12T20:21:56.735Z,18.63
2019-03-12T20:24:23.468Z,17.47
2019-03-12T20:26:50.199Z,15.77
2019-03-12T20:29:16.974Z,18.40
2019-03-12T20:31:43.675Z,19.83
2019-03-12T20:34:10.379Z,18.00
2019-03-12T20:36:37.093Z,21.20
2019-03-12T20:39:03.814Z,21.90
2019-03-12T20:41:30.599Z,24.53
2019-03-12T20:43:57.403Z,20.10
2019-03-12T20:46:24.126Z,24.20
2019-03-12T20:48:50.879Z,18.73
2019-03-12T20:51:17.578Z,23.27
2019-03-12T20:53:44.397Z,20.90
2019-03-12T20:56:11.095Z,16.17
2019-03-12T20:58:37.818Z,16.67
2019-03-12T21:01:04.564Z,15.47
2019-03-12T21:03:31.266Z,17.30
2019-03-12T21:05:58.032Z,21.87
2019-03-12T21:08:24.762Z,17.50
2019-03-12T21:10:51.497Z,15.37
2019-03-12T21:13:18.221Z,16.00
2019-03-12T21:15:45.254Z,15.80
2019-03-12T21:18:12.025Z,14.33
2019-03-12T21:20:38.750Z,15.27
2019-03-12T21:23:05.508Z,14.87
2019-03-12T21:25:32.285Z,12.50
2019-03-12T21:27:58.927Z,13.37
2019-03-12T21:30:25.635Z,16.60
2019-03-12T21:32:52.354Z,12.70
2019-03-12T21:35:19.269Z,12.87
2019-03-12T21:37:45.979Z,12.20
2019-03-12T21:40:12.722Z,12.87
2019-03-12T21:42:39.449Z,11.23
2019-03-12T21:45:06.168Z,12.90
2019-03-12T21:47:32.938Z,12.10
2019-03-12T21:49:59.576Z,13.63
2019-03-12T21:52:26.285Z,13.83
2019-03-12T21:54:53.053Z,10.70
2019-03-12T21:57:19.711Z,14.07
2019-03-12T21:59:46.410Z,12.77
2019-03-12T22:02:13.168Z,13.60
2019-03-12T22:04:39.819Z,11.00
2019-03-12T22:07:06.683Z,13.00
2019-03-12T22:09:33.384Z,13.20
2019-03-12T22:12:00.123Z,12.50
2019-03-12T22:14:26.841Z,14.97
2019-03-12T22:16:53.605Z,14.53
2019-03-12T22:19:20.303Z,14.00
2019-03-12T22:21:46.959Z,12.70
2019-03-12T22:24:14.281Z,11.27
2019-03-12T22:26:40.975Z,13.63
2019-03-12T22:29:07.796Z,13.43
2019-03-12T22:31:34.500Z,14.83
2019-03-12T22:34:01.120Z,13.90
2019-03-12T22:36:27.746Z,13.23
2019-03-12T22:38:54.499Z,11.50
2019-03-12T22:41:21.186Z,16.27
2019-03-12T22:43:47.904Z,14.60
2019-03-12T22:46:14.696Z,17.23
2019-03-12T22:48:41.434Z,16.07
2019-03-12T22:51:08.144Z,12.93
2019-03-12T22:53:35.354Z,12.40
2019-03-12T22:56:02.069Z,13.63
2019-03-12T22:58:28.773Z,13.73
2019-03-12T23:00:55.817Z,16.07
2019-03-12T23:03:22.518Z,13.87
2019-03-12T23:05:49.250Z,13.67
2019-03-12T23:08:15.987Z,13.10
2019-03-12T23:10:42.982Z,12.87
2019-03-12T23:13:09.631Z,13.53
2019-03-12T23:15:36.343Z,13.10
2019-03-12T23:18:03.331Z,13.80
2019-03-12T23:20:30.119Z,12.63
2019-03-12T23:22:57.171Z,13.17
2019-03-12T23:25:24.134Z,12.83
2019-03-12T23:27:50.808Z,12.40
2019-03-12T23:30:17.632Z,13.67
2019-03-12T23:32:44.363Z,12.73
2019-03-12T23:35:11.084Z,11.93
2019-03-12T23:37:37.806Z,14.83
2019-03-12T23:40:04.544Z,12.73
2019-03-12T23:42:31.289Z,13.63
2019-03-12T23:44:58.100Z,12.20
2019-03-12T23:47:25.114Z,12.33
2019-03-12T23:49:51.786Z,13.43
2019-03-12T23:52:18.513Z,15.27
2019-03-12T23:54:45.238Z,12.27
2019-03-12T23:57:11.923Z,12.70
2019-03-12T23:59:38.549Z,13.10
